createdAt,value
2022-11-17T00:02:01.651Z,6.87
2022-11-17T00:05:06.251Z,6.77
2022-11-17T00:08:09.131Z,6.90
2022-11-17T00:11:12.320Z,6.78
2022-11-17T00:14:33.318Z,6.84
2022-11-17T00:17:36.476Z,6.74
2022-11-17T00:20:58.339Z,6.83
2022-11-17T00:24:01.868Z,6.86
2022-11-17T00:27:04.760Z,6.71
2022-11-17T00:30:08.285Z,6.80
2022-11-17T00:33:31.451Z,6.89
2022-11-17T00:36:37.831Z,6.93
2022-11-17T00:39:40.990Z,6.88
2022-11-17T00:42:44.492Z,6.84
2022-11-17T00:45:47.285Z,6.88
2022-11-17T00:48:50.519Z,6.73
2022-11-17T00:51:57.848Z,6.80
2022-11-17T00:55:01.001Z,6.67
2022-11-17T00:58:03.913Z,6.62
2022-11-17T01:01:07.171Z,6.74
2022-11-17T01:04:10.042Z,6.62
2022-11-17T01:07:13.161Z,6.68
2022-11-17T01:10:16.142Z,6.70
2022-11-17T01:13:19.290Z,6.72
2022-11-17T01:16:22.827Z,6.73
2022-11-17T01:19:26.055Z,6.63
2022-11-17T01:22:28.953Z,6.79
2022-11-17T01:25:32.624Z,6.64
2022-11-17T01:28:36.508Z,6.58
2022-11-17T01:31:43.451Z,6.68
2022-11-17T01:34:47.393Z,6.60
2022-11-17T01:37:50.515Z,6.55
2022-11-17T01:40:53.429Z,6.47
2022-11-17T01:44:38.002Z,6.48
2022-11-17T01:47:47.559Z,6.52
2022-11-17T01:50:52.256Z,6.52
2022-11-17T01:53:55.147Z,6.52
2022-11-17T01:57:03.641Z,6.48
2022-11-17T02:00:09.274Z,6.42
2022-11-17T02:03:13.226Z,6.38
2022-11-17T02:06:21.467Z,6.37
2022-11-17T02:09:26.201Z,6.46
2022-11-17T02:12:31.978Z,6.41
2022-11-17T02:15:35.103Z,6.47
2022-11-17T02:18:39.638Z,6.36
2022-11-17T02:22:05.703Z,6.26
2022-11-17T02:25:33.979Z,6.25
2022-11-17T02:28:47.815Z,6.36
2022-11-17T02:32:00.321Z,6.46
2022-11-17T02:35:10.267Z,6.44
2022-11-17T02:38:39.154Z,6.47
2022-11-17T02:41:51.404Z,6.53
2022-11-17T02:44:58.038Z,6.52
2022-11-17T02:48:06.574Z,6.52
2022-11-17T02:51:13.552Z,6.61
2022-11-17T02:54:17.871Z,6.74
2022-11-17T02:57:34.907Z,6.73
2022-11-17T03:00:44.496Z,6.77
2022-11-17T03:04:09.181Z,6.87
2022-11-17T03:07:58.687Z,6.85
2022-11-17T03:11:06.532Z,6.80
2022-11-17T03:14:31.919Z,6.65
2022-11-17T03:17:57.143Z,6.81
2022-11-17T03:21:14.948Z,6.70
2022-11-17T03:24:33.824Z,6.46
2022-11-17T03:27:44.435Z,6.70
2022-11-17T03:30:48.331Z,6.81
2022-11-17T03:33:52.659Z,6.57
2022-11-17T03:37:00.161Z,6.51
2022-11-17T03:40:08.133Z,6.75
2022-11-17T03:43:13.356Z,6.53
2022-11-17T03:46:17.593Z,6.47
2022-11-17T03:49:29.507Z,6.42
2022-11-17T03:52:34.153Z,6.27
2022-11-17T03:56:01.674Z,6.36
2022-11-17T03:59:53.365Z,6.26
2022-11-17T04:02:58.974Z,6.29
2022-11-17T04:06:02.283Z,6.38
2022-11-17T04:09:05.172Z,6.33
2022-11-17T04:12:28.502Z,6.32
2022-11-17T04:15:49.959Z,6.32
2022-11-17T04:18:58.558Z,6.26
2022-11-17T04:22:01.938Z,6.06
2022-11-17T04:25:06.013Z,6.08
2022-11-17T04:28:27.564Z,6.07
2022-11-17T04:31:31.760Z,6.04
2022-11-17T04:34:34.671Z,5.95
2022-11-17T04:37:38.540Z,6.24
2022-11-17T04:41:01.939Z,6.28
2022-11-17T04:44:07.746Z,6.35
2022-11-17T04:47:10.616Z,6.40
2022-11-17T04:50:15.210Z,6.44
2022-11-17T04:53:18.047Z,6.44
2022-11-17T04:56:21.969Z,6.47
2022-11-17T04:59:25.010Z,6.40
2022-11-17T05:02:28.356Z,6.29
2022-11-17T05:05:31.243Z,6.22
2022-11-17T05:08:36.740Z,6.28
2022-11-17T05:11:58.503Z,6.31
2022-11-17T05:15:01.557Z,6.38
2022-11-17T05:18:05.403Z,6.41
2022-11-17T05:21:10.250Z,6.35
2022-11-17T05:24:14.525Z,6.46
2022-11-17T05:27:17.719Z,6.48
2022-11-17T05:30:20.658Z,6.47
2022-11-17T05:33:23.877Z,6.41
2022-11-17T05:36:27.468Z,6.35
2022-11-17T05:39:30.603Z,6.34
2022-11-17T05:42:34.221Z,6.43
2022-11-17T05:45:37.374Z,6.49
2022-11-17T05:48:46.371Z,6.53
2022-11-17T05:51:53.119Z,6.61
2022-11-17T05:54:56.195Z,6.61
2022-11-17T05:58:02.651Z,6.48
2022-11-17T06:01:05.653Z,6.51
2022-11-17T06:04:09.071Z,6.42
2022-11-17T06:07:12.028Z,6.33
2022-11-17T06:10:15.296Z,6.26
2022-11-17T06:13:20.279Z,6.30
2022-11-17T06:16:23.938Z,6.23
2022-11-17T06:19:40.251Z,6.28
2022-11-17T06:22:48.181Z,6.35
2022-11-17T06:25:51.460Z,6.40
2022-11-17T06:28:55.030Z,6.38
2022-11-17T06:31:58.672Z,6.31
2022-11-17T06:35:04.713Z,6.30
2022-11-17T06:38:07.960Z,6.16
2022-11-17T06:41:12.173Z,6.08
2022-11-17T06:44:16.335Z,6.07
2022-11-17T06:47:19.815Z,6.28
2022-11-17T06:50:23.329Z,6.23
2022-11-17T06:53:26.834Z,6.29
2022-11-17T06:56:29.904Z,6.25
2022-11-17T06:59:33.077Z,6.11
2022-11-17T07:02:37.501Z,6.36
2022-11-17T07:05:40.779Z,6.56
2022-11-17T07:08:45.505Z,6.50
2022-11-17T07:11:48.675Z,6.36
2022-11-17T07:14:51.583Z,6.40
2022-11-17T07:17:55.187Z,6.35
2022-11-17T07:21:03.087Z,6.41
2022-11-17T07:24:06.487Z,6.41
2022-11-17T07:27:09.344Z,6.44
2022-11-17T07:30:13.427Z,6.54
2022-11-17T07:33:16.309Z,6.42
2022-11-17T07:36:19.449Z,6.57
2022-11-17T07:39:22.559Z,6.64
2022-11-17T07:42:25.695Z,6.54
2022-11-17T07:45:31.867Z,6.62
2022-11-17T07:48:35.932Z,6.45
2022-11-17T07:51:39.103Z,6.46
2022-11-17T07:54:42.265Z,6.36
2022-11-17T07:57:45.488Z,6.48
2022-11-17T08:00:48.636Z,6.43
2022-11-17T08:03:51.850Z,6.50
2022-11-17T08:06:54.779Z,6.53
2022-11-17T08:09:57.992Z,6.63
2022-11-17T08:13:01.519Z,6.65
2022-11-17T08:16:05.444Z,6.65
2022-11-17T08:19:12.087Z,6.43
2022-11-17T08:22:15.491Z,6.67
2022-11-17T08:25:23.003Z,6.85
2022-11-17T08:28:26.685Z,6.91
2022-11-17T08:31:29.738Z,6.87
2022-11-17T08:34:33.273Z,6.86
2022-11-17T08:37:40.685Z,7.05
2022-11-17T08:40:46.113Z,7.09
2022-11-17T08:43:50.943Z,7.11
2022-11-17T08:46:55.952Z,7.17
2022-11-17T08:49:59.030Z,6.64
2022-11-17T08:53:02.149Z,6.94
2022-11-17T08:56:12.268Z,6.97
2022-11-17T08:59:15.704Z,6.60
2022-11-17T09:02:18.728Z,6.85
2022-11-17T09:05:22.230Z,7.04
2022-11-17T09:11:48.219Z,7.03
2022-11-17T09:14:51.065Z,6.99
2022-11-17T09:17:54.270Z,7.14
2022-11-17T09:21:08.925Z,7.16
2022-11-17T09:24:12.159Z,7.43
2022-11-17T09:27:15.127Z,7.41
2022-11-17T09:30:22.251Z,7.48
2022-11-17T09:33:25.485Z,7.54
2022-11-17T09:36:29.868Z,7.39
2022-11-17T09:39:32.765Z,7.33
2022-11-17T09:42:41.142Z,7.50
2022-11-17T09:45:46.643Z,7.45
2022-11-17T09:48:57.894Z,7.68
2022-11-17T09:52:05.860Z,7.64
2022-11-17T09:55:08.937Z,7.81
2022-11-17T09:58:19.191Z,7.84
2022-11-17T10:01:23.374Z,7.83
2022-11-17T10:04:29.124Z,7.85
2022-11-17T10:07:32.374Z,7.69
2022-11-17T10:10:40.412Z,7.90
2022-11-17T10:13:43.260Z,7.87
2022-11-17T10:16:52.962Z,8.08
2022-11-17T10:19:55.799Z,7.97
2022-11-17T10:22:59.087Z,8.26
2022-11-17T10:26:07.123Z,7.79
2022-11-17T10:29:14.173Z,7.93
2022-11-17T10:32:17.043Z,8.03
2022-11-17T10:35:34.891Z,8.22
2022-11-17T10:38:44.602Z,8.42
2022-11-17T10:41:50.845Z,8.34
2022-11-17T10:44:59.665Z,8.19
2022-11-17T10:48:29.453Z,8.25
2022-11-17T10:51:33.621Z,8.50
2022-11-17T10:54:37.481Z,8.38
2022-11-17T10:57:44.658Z,8.46
2022-11-17T11:00:54.415Z,8.67
2022-11-17T11:03:57.668Z,8.56
2022-11-17T11:07:21.886Z,8.52
2022-11-17T11:10:32.427Z,8.41
2022-11-17T11:13:53.371Z,8.45
2022-11-17T11:16:56.320Z,8.46
2022-11-17T11:19:59.741Z,8.51
2022-11-17T11:23:09.903Z,8.53
2022-11-17T11:26:20.454Z,8.58
2022-11-17T11:29:42.673Z,8.53
2022-11-17T11:32:53.021Z,8.43
2022-11-17T11:36:08.099Z,8.48
2022-11-17T11:39:30.222Z,8.66
2022-11-17T11:42:53.143Z,8.50
2022-11-17T11:46:03.097Z,8.47
2022-11-17T11:49:36.471Z,8.61
2022-11-17T11:52:44.964Z,8.76
2022-11-17T11:55:50.072Z,8.68
2022-11-17T11:59:02.513Z,8.66
2022-11-17T12:02:11.522Z,8.68
2022-11-17T12:05:26.755Z,8.71
2022-11-17T12:08:36.585Z,8.91
2022-11-17T12:12:00.606Z,9.03
2022-11-17T12:15:18.826Z,8.72
2022-11-17T12:18:22.301Z,8.88
2022-11-17T12:21:30.314Z,8.86
2022-11-17T12:24:39.255Z,8.94
2022-11-17T12:27:47.175Z,9.23
2022-11-17T12:30:53.815Z,9.46
2022-11-17T12:34:09.714Z,9.50
2022-11-17T12:37:15.828Z,9.75
2022-11-17T12:40:41.639Z,10.52
2022-11-17T12:43:44.754Z,12.43
2022-11-17T12:46:49.422Z,13.70
2022-11-17T12:50:09.709Z,16.01
2022-11-17T12:53:21.095Z,15.64
2022-11-17T12:57:08.110Z,15.85
2022-11-17T13:00:22.543Z,16.05
2022-11-17T13:03:48.150Z,16.35
2022-11-17T13:07:21.948Z,16.99
2022-11-17T13:10:31.014Z,14.13
2022-11-17T13:13:37.206Z,16.12
2022-11-17T13:16:49.187Z,16.56
2022-11-17T13:20:28.264Z,16.16
2022-11-17T13:23:33.574Z,14.15
2022-11-17T13:26:38.337Z,13.52
2022-11-17T13:29:41.616Z,13.45
2022-11-17T13:32:44.667Z,13.17
2022-11-17T13:35:47.918Z,12.73
2022-11-17T13:38:52.497Z,12.99
2022-11-17T13:41:56.902Z,12.68
2022-11-17T13:45:06.270Z,12.47
2022-11-17T13:48:38.696Z,12.38
2022-11-17T13:51:44.391Z,13.06
2022-11-17T13:54:47.631Z,13.74
2022-11-17T13:58:29.241Z,12.81
2022-11-17T14:01:33.458Z,13.02
2022-11-17T14:04:38.190Z,12.90
2022-11-17T14:07:43.242Z,12.02
2022-11-17T14:10:46.494Z,11.42
2022-11-17T14:13:51.824Z,10.85
2022-11-17T14:16:57.712Z,10.08
2022-11-17T14:20:20.893Z,10.39
2022-11-17T14:23:24.236Z,9.94
2022-11-17T14:26:27.317Z,9.97
2022-11-17T14:29:30.663Z,10.27
2022-11-17T14:32:35.048Z,10.37
2022-11-17T14:35:38.401Z,10.42
2022-11-17T14:38:41.563Z,10.52
2022-11-17T14:41:47.098Z,10.65
2022-11-17T14:44:51.347Z,10.56
2022-11-17T14:47:54.451Z,10.28
2022-11-17T14:50:59.529Z,10.04
2022-11-17T14:54:04.355Z,10.02
2022-11-17T14:57:07.458Z,9.84
2022-11-17T15:00:15.838Z,9.68
2022-11-17T15:03:21.858Z,9.56
2022-11-17T15:06:26.788Z,9.40
2022-11-17T15:09:38.836Z,9.29
2022-11-17T15:12:42.011Z,9.20
2022-11-17T15:15:44.895Z,9.09
2022-11-17T15:18:48.959Z,8.92
2022-11-17T15:21:51.808Z,8.91
2022-11-17T15:24:54.979Z,8.71
2022-11-17T15:27:57.866Z,8.61
2022-11-17T15:31:10.329Z,8.47
2022-11-17T15:34:18.724Z,8.39
2022-11-17T15:37:23.203Z,8.30
2022-11-17T15:40:26.067Z,8.10
2022-11-17T15:43:31.039Z,7.97
2022-11-17T15:46:33.864Z,7.94
2022-11-17T15:49:37.100Z,7.89
2022-11-17T15:53:02.920Z,7.79
2022-11-17T15:56:08.118Z,7.78
2022-11-17T15:59:11.159Z,7.74
2022-11-17T16:02:15.056Z,7.76
2022-11-17T16:05:18.247Z,7.73
2022-11-17T16:08:21.076Z,7.77
2022-11-17T16:11:25.875Z,7.76
2022-11-17T16:14:29.783Z,7.80
2022-11-17T16:17:32.848Z,7.88
2022-11-17T16:20:35.846Z,7.93
2022-11-17T16:23:43.805Z,7.95
2022-11-17T16:26:47.685Z,8.02
2022-11-17T16:29:50.768Z,8.05
2022-11-17T16:32:54.090Z,8.09
2022-11-17T16:36:04.748Z,8.14
2022-11-17T16:39:10.922Z,8.15
2022-11-17T16:42:14.253Z,8.22
2022-11-17T16:45:17.092Z,8.25
2022-11-17T16:48:20.269Z,8.31
2022-11-17T16:51:23.348Z,8.34
2022-11-17T16:54:26.628Z,8.28
2022-11-17T16:57:29.861Z,8.36
2022-11-17T17:00:35.276Z,8.36
2022-11-17T17:03:38.291Z,8.33
2022-11-17T17:06:42.638Z,8.32
2022-11-17T17:09:45.408Z,8.34
2022-11-17T17:12:48.427Z,8.35
2022-11-17T17:15:51.518Z,8.38
2022-11-17T17:19:00.408Z,8.36
2022-11-17T17:22:03.968Z,8.36
2022-11-17T17:25:09.493Z,8.34
2022-11-17T17:28:12.432Z,8.31
2022-11-17T17:31:21.264Z,8.26
2022-11-17T17:34:26.283Z,8.23
2022-11-17T17:37:33.450Z,8.31
2022-11-17T17:40:36.808Z,8.35
2022-11-17T17:43:40.946Z,8.38
2022-11-17T17:46:52.070Z,8.40
2022-11-17T17:49:56.719Z,8.41
2022-11-17T17:52:59.940Z,8.38
2022-11-17T17:56:11.632Z,8.33
2022-11-17T17:59:16.334Z,8.38
2022-11-17T18:02:21.068Z,8.41
2022-11-17T18:05:24.458Z,8.38
2022-11-17T18:08:28.252Z,8.41
2022-11-17T18:11:33.466Z,8.43
2022-11-17T18:14:36.818Z,8.45
2022-11-17T18:17:40.826Z,8.43
2022-11-17T18:20:44.604Z,8.39
2022-11-17T18:23:48.359Z,8.39
2022-11-17T18:26:51.494Z,8.38
2022-11-17T18:29:55.099Z,8.36
2022-11-17T18:33:02.765Z,8.32
2022-11-17T18:36:08.644Z,8.26
2022-11-17T18:39:12.863Z,8.07
2022-11-17T18:42:16.926Z,8.19
2022-11-17T18:45:19.804Z,8.21
2022-11-17T18:48:23.351Z,8.20
2022-11-17T18:51:29.284Z,8.13
2022-11-17T18:54:33.073Z,8.12
2022-11-17T18:57:39.596Z,8.13
2022-11-17T19:00:47.816Z,8.13
2022-11-17T19:03:54.766Z,8.15
2022-11-17T19:07:01.016Z,8.13
2022-11-17T19:10:03.970Z,8.18
2022-11-17T19:13:07.442Z,8.22
2022-11-17T19:16:27.353Z,7.99
2022-11-17T19:19:31.080Z,8.19
2022-11-17T19:22:35.811Z,8.20
2022-11-17T19:25:40.765Z,8.18
2022-11-17T19:28:44.788Z,8.17
2022-11-17T19:31:51.840Z,8.27
2022-11-17T19:35:01.343Z,8.30
2022-11-17T19:38:11.227Z,8.28
2022-11-17T19:41:17.414Z,8.29
2022-11-17T19:44:21.925Z,8.24
2022-11-17T19:47:25.259Z,8.28
2022-11-17T19:50:30.834Z,8.26
2022-11-17T19:53:34.098Z,8.29
2022-11-17T19:56:40.070Z,8.25
2022-11-17T19:59:43.440Z,8.13
2022-11-17T20:02:47.161Z,8.19
2022-11-17T20:05:50.710Z,8.25
2022-11-17T20:08:55.243Z,8.28
2022-11-17T20:12:06.363Z,8.36
2022-11-17T20:15:27.012Z,8.22
2022-11-17T20:18:33.919Z,8.22
2022-11-17T20:21:37.239Z,8.26
2022-11-17T20:24:40.935Z,8.28
2022-11-17T20:27:46.164Z,8.15
2022-11-17T20:30:50.945Z,8.24
2022-11-17T20:34:00.605Z,8.27
2022-11-17T20:37:04.294Z,8.40
2022-11-17T20:40:08.843Z,8.34
2022-11-17T20:43:13.538Z,8.32
2022-11-17T20:46:17.064Z,8.36
2022-11-17T20:49:21.054Z,8.37
2022-11-17T20:52:30.128Z,8.27
2022-11-17T20:55:34.396Z,8.36
2022-11-17T20:58:38.383Z,8.31
2022-11-17T21:01:43.035Z,8.39
2022-11-17T21:04:46.352Z,8.35
2022-11-17T21:07:49.630Z,8.35
2022-11-17T21:11:00.045Z,8.42
2022-11-17T21:14:05.646Z,8.43
2022-11-17T21:17:28.964Z,8.46
2022-11-17T21:20:33.771Z,8.44
2022-11-17T21:23:38.123Z,8.49
2022-11-17T21:26:41.635Z,8.50
2022-11-17T21:29:44.832Z,8.51
2022-11-17T21:32:48.342Z,8.51
2022-11-17T21:35:51.174Z,8.56
2022-11-17T21:38:55.650Z,8.54
2022-11-17T21:42:00.376Z,8.46
2022-11-17T21:45:03.540Z,8.43
2022-11-17T21:48:08.132Z,8.42
2022-11-17T21:51:23.387Z,8.35
2022-11-17T21:54:26.145Z,8.36
2022-11-17T21:57:29.432Z,8.34
2022-11-17T22:00:32.029Z,8.41
2022-11-17T22:03:35.951Z,8.40
2022-11-17T22:06:39.220Z,8.42
2022-11-17T22:09:42.409Z,8.43
2022-11-17T22:12:45.277Z,8.45
2022-11-17T22:15:48.354Z,8.44
2022-11-17T22:18:51.170Z,8.42
2022-11-17T22:21:55.416Z,8.42
2022-11-17T22:25:11.438Z,8.43
2022-11-17T22:28:22.420Z,8.35
2022-11-17T22:31:25.962Z,8.29
2022-11-17T22:34:29.079Z,8.32
2022-11-17T22:37:32.118Z,8.27
2022-11-17T22:40:35.648Z,8.28
2022-11-17T22:43:38.469Z,8.28
2022-11-17T22:46:43.249Z,8.24
2022-11-17T22:49:46.713Z,8.25
2022-11-17T22:52:49.979Z,8.22
2022-11-17T22:55:52.887Z,8.24
2022-11-17T22:58:59.610Z,8.20
2022-11-17T23:02:02.973Z,8.20
2022-11-17T23:05:06.291Z,8.19
2022-11-17T23:08:10.044Z,8.16
2022-11-17T23:11:35.964Z,8.10
2022-11-17T23:14:36.290Z,8.14
2022-11-17T23:17:39.459Z,8.14
2022-11-17T23:20:42.279Z,8.17
2022-11-17T23:23:46.318Z,8.11
2022-11-17T23:26:49.179Z,8.10
2022-11-17T23:29:52.229Z,8.13
2022-11-17T23:32:58.001Z,8.14
2022-11-17T23:36:06.978Z,8.13
2022-11-17T23:39:09.930Z,8.10
2022-11-17T23:42:13.110Z,8.17
2022-11-17T23:45:16.260Z,8.17
2022-11-17T23:48:20.402Z,8.16
2022-11-17T23:51:25.648Z,8.03
2022-11-17T23:54:28.749Z,7.98
2022-11-17T23:57:32.850Z,7.99
